Weather observations for the past three days for
Winona, Winona Municipal Airport-Max Conrad Field
Metric (Imperial)
Date Time (cdt) Wind (kph) Vis. (km) Weather Sky Cond. Temperature (ºC) Relative Humidity Wind Chill (°C) Heat Index (°C) Pressure Precipitation (cm)
Air Dwpt 6 hour altimeter (cm) sea level (mb) 1 hr 3 hr 6 hr
Max. Min.
10 09:15 Calm 16.09 Mostly Cloudy BKN080 BKN110 8 1 62% 76.48 0.0
10 08:55 Calm 16.09 Mostly Cloudy SCT080 BKN110 8 1 62% 76.48 0.0
10 08:35 NW 6 16.09 Mostly Cloudy BKN110 8 0 57% 76.48 0.0
10 08:15 NW 6 16.09 Partly Cloudy SCT110 7 0 61% 76.45 0.0
10 07:55 NW 6 16.09 Mostly Cloudy BKN110 6 0 66% 76.45 0.0
10 07:35 N 7 16.09 Partly Cloudy SCT100 6 1 71% 5 76.45 0.0
10 07:15 NW 9 16.09 Fair CLR 5 0 70% 3 76.43 0.0
10 06:55 Calm 16.09 Partly Cloudy SCT100 3 0 81% 76.4 0.0
10 06:35 W 6 16.09 Partly Cloudy SCT100 2 0 87% 76.4 0.0
10 06:15 Calm 16.09 Fair CLR 1 -1 87% 76.38 0.0
10 05:55 Calm 16.09 Fair CLR 2 -1 81% 76.35 0.0
10 05:35 Calm 16.09 Fair CLR 1 -1 87% 76.35 0.0
10 05:15 Calm 16.09 Fair CLR 2 0 87% 76.33 0.0
10 04:55 NW 6 16.09 Fair CLR 2 -1 81% 76.3 0.0
10 04:35 NW 6 16.09 Fair CLR 2 0 87% 76.28 0.0
10 04:15 Calm 16.09 Fair CLR 2 0 87% 76.28 0.0
10 03:55 Calm 16.09 Fair CLR 2 0 87% 76.28 0.0
10 03:35 Calm 16.09 Fair CLR 3 0 81% 76.25 0.0
10 03:15 Calm 16.09 Fair CLR 3 0 81% 76.23 0.0
10 02:55 NW 6 16.09 Partly Cloudy SCT090 3 0 81% 76.2 0.0
10 02:35 Calm 16.09 Mostly Cloudy BKN090 5 0 70% 76.2 0.0
10 02:15 Calm 16.09 Partly Cloudy SCT090 5 0 70% 76.2 0.0
10 01:55 Calm 16.09 Partly Cloudy SCT090 5 0 70% 76.2 0.0
10 01:35 Calm 16.09 Mostly Cloudy BKN090 5 0 70% 76.2 0.0
10 01:15 Calm 16.09 Mostly Cloudy BKN090 7 -1 57% 76.17 0.0
10 00:55 NW 7 16.09 Mostly Cloudy BKN090 6 -2 57% 5 76.17 0.0
10 00:35 Calm 16.09 Mostly Cloudy BKN090 5 -1 66% 76.15 0.0
10 00:15 Calm 16.09 Partly Cloudy SCT090 6 -1 61% 76.12 0.0
09 23:55 W 6 16.09 Mostly Cloudy BKN090 7 -1 57% 76.1 0.0
09 23:35 NW 6 16.09 Mostly Cloudy BKN090 6 -1 61% 76.07 0.0
09 23:15 NW 6 16.09 Partly Cloudy SCT090 7 -1 57% 76.07 0.0
09 22:55 NW 6 16.09 Fair CLR 7 -2 53% 76.05 0.0
09 22:35 Calm 16.09 Fair CLR 8 -3 46% 76.05 0.0
09 22:15 Calm 16.09 Fair CLR 8 -3 46% 76.02 0.0
09 21:55 W 6 16.09 Fair CLR 11 -5 32% 76 0.0
09 21:35 W 6 16.09 Fair CLR 11 -5 32% 75.97 0.0
09 21:15 W 7 16.09 Fair CLR 11 -5 32% 75.95 0.0
09 20:55 NW 9 16.09 Fair CLR 11 -6 30% 75.95 0.0
09 20:35 NW 15 16.09 Fair CLR 12 -6 28% 75.92 0.0
09 20:15 NW 19 G 30 16.09 Fair CLR 12 -7 26% 75.87 0.0
09 19:55 NW 17 G 37 16.09 Fair CLR 13 -7 24% 75.84 0.0
09 19:35 NW 24 G 46 16.09 Fair CLR 14 -7 23% 75.82 0.0
09 19:15 NW 26 G 37 16.09 Fair CLR 15 -5 25% 75.79 0.0
09 18:55 NW 19 G 24 16.09 Fair CLR 15 -4 27% 75.77 0.0
09 18:35 NW 20 16.09 Fair CLR 16 -5 23% 75.74 0.0
09 18:15 NW 28 G 41 16.09 Fair CLR 16 -6 22% 75.72 0.0
09 17:55 NW 30 G 41 16.09 Fair CLR 16 -7 20% 75.72 0.0
09 17:35 NW 28 G 33 16.09 Fair CLR 16 -4 25% 75.69 0.0
09 17:15 NW 28 G 41 16.09 Fair CLR 16 -4 25% 75.67 0.0
09 16:55 NW 17 G 33 16.09 Fair CLR 16 -3 27% 75.64 0.0
09 16:35 W 22 G 41 16.09 Fair CLR 17 -3 25% 75.64 0.0
09 16:15 NW 31 G 43 16.09 Fair CLR 17 -3 25% 75.64 0.0
09 15:55 NW 33 G 43 16.09 Fair and Breezy CLR 17 -2 27% 75.62 0.0
09 15:35 NW 30 G 43 16.09 Fair CLR 17 -3 25% 75.59 0.0
09 15:15 NW 28 G 43 16.09 Fair CLR 17 -2 27% 75.59 0.0
09 14:55 NW 26 G 43 16.09 Fair CLR 17 -1 30% 75.59 0.0
09 14:35 NW 35 G 46 16.09 Fair and Breezy CLR 17 -1 30% 75.57 0.0
09 14:15 N 24 G 41 16.09 Partly Cloudy SCT070 16 -1 31% 75.57 0.0
09 13:55 NW 26 G 41 16.09 Partly Cloudy SCT070 17 0 32% 75.57 0.0
09 13:35 NW 28 G 44 16.09 Partly Cloudy SCT070 17 0 32% 75.54 0.0
09 13:15 NW 24 G 39 16.09 Partly Cloudy SCT070 16 0 34% 75.54 0.0
09 12:55 N 28 G 43 16.09 Partly Cloudy SCT065 SCT075 16 1 36% 75.51 0.0
09 12:35 NW 24 G 37 16.09 Fair CLR 16 2 39% 75.51 0.0
09 12:15 NW 30 G 44 16.09 Fair CLR 16 2 39% 75.49 0.0
09 11:55 NW 22 G 39 16.09 Partly Cloudy SCT044 SCT050 SCT065 15 3 45% 75.49 0.0
09 11:35 NW 24 G 31 16.09 Mostly Cloudy BKN060 14 3 48% 75.49 0.0
09 11:15 NW 26 G 35 16.09 Partly Cloudy SCT060 15 3 45% 75.49 0.0
09 10:55 NW 24 G 39 16.09 Partly Cloudy SCT047 15 4 48% 75.46 0.0
09 10:35 NW 26 G 41 16.09 Partly Cloudy SCT036 SCT047 SCT055 13 3 51% 75.44 0.0
09 10:15 NW 28 G 39 16.09 Partly Cloudy SCT040 SCT046 SCT050 14 5 55% 75.41 0.0
09 09:55 NW 24 G 39 16.09 Mostly Cloudy BKN044 14 3 48% 75.39 0.0
09 09:35 N 28 G 37 16.09 Overcast OVC040 13 3 51% 75.36 0.0
09 09:15 N 7 16.09 Overcast OVC036 12 3 54% 75.34 0.0
09 08:55 NW 13 16.09 Mostly Cloudy BKN036 BKN043 BKN049 13 3 51% 75.31 0.0
09 08:35 NW 6 16.09 Partly Cloudy SCT075 12 1 47% 75.31 0.0
09 08:15 Calm 16.09 Overcast BKN060 OVC070 11 1 50% 75.31 0.0
09 07:55 Calm 16.09 Mostly Cloudy SCT060 BKN080 BKN100 11 2 54% 75.31 0.0
09 07:35 Calm 16.09 Mostly Cloudy BKN080 BKN085 9 3 66% 75.29 0.0
09 07:15 Calm 16.09 Fair CLR 9 4 71% 75.29 0.0
09 06:55 Calm 16.09 Fair CLR 8 2 66% 75.26 0.0
09 06:35 Calm 16.09 Fair CLR 8 2 66% 75.23 0.0
09 06:15 Calm 16.09 Partly Cloudy SCT090 8 2 66% 75.21 0.0
09 05:55 N 7 16.09 Partly Cloudy SCT090 6 2 76% 5 75.16 0.0
09 05:35 Calm 16.09 Fair CLR 6 1 71% 75.13 0.0
09 05:15 NW 6 16.09 Fair CLR 6 1 71% 75.16 0.0
09 04:55 Calm 16.09 Fair CLR 6 1 71% 75.18 0.0
09 04:35 Calm 16.09 Fair CLR 6 1 71% 75.16 0.0
09 04:15 Calm 16.09 Fair CLR 7 2 71% 75.18 0.0
09 03:55 Calm 16.09 Fair CLR 8 1 62% 75.18 0.0
09 03:35 Calm 16.09 Fair CLR 7 4 81% 75.18 0.0
09 03:15 Calm 16.09 Fair CLR 8 3 71% 75.18 0.0
09 02:55 Calm 16.09 Fair CLR 8 5 82% 75.18 0.0
09 02:35 Calm 16.09 Fair CLR 8 4 76% 75.21 0.0
09 02:15 Calm 16.09 Fair CLR 10 4 67% 75.18 0.0
09 01:55 Calm 16.09 Fair CLR 9 3 66% 75.18 0.0
09 01:35 NW 7 16.09 Fair CLR 12 -1 41% 75.18 0.0
09 01:15 NW 9 16.09 Fair CLR 14 -1 36% 75.21 0.0
09 00:55 W 9 16.09 Fair CLR 12 0 44% 75.18 0.0
09 00:35 NW 9 16.09 Fair CLR 10 1 54% 9 75.18 0.0
09 00:15 NW 9 16.09 Fair CLR 11 1 50% 75.18 0.0
08 23:55 NW 9 16.09 Fair CLR 10 2 58% 9 75.18 0.0
08 23:35 Calm 16.09 Fair CLR 11 4 62% 75.16 0.0
08 23:15 Calm 16.09 Fair CLR 11 5 67% 75.16 0.0
08 22:55 Calm 16.09 Fair CLR 10 3 62% 75.16 0.0
08 22:35 Calm 16.09 Fair CLR 11 6 72% 75.16 0.0
08 22:15 Calm 16.09 Fair CLR 12 4 58% 75.13 0.0
08 21:55 Calm 16.09 Fair CLR 12 3 54% 75.13 0.0
08 21:35 Calm 16.09 Fair CLR 13 2 47% 75.13 0.0
08 21:15 N 6 16.09 Partly Cloudy SCT120 16 1 36% 75.13 0.0
08 20:55 Calm 16.09 Partly Cloudy SCT120 18 0 30% 75.11 0.0
08 20:35 NW 7 16.09 Fair CLR 17 1 34% 75.11 0.0
08 20:15 W 11 16.09 Fair CLR 20 -1 24% 75.08 0.0
08 19:55 W 9 16.09 Partly Cloudy SCT100 21 -1 23% 75.11 0.0
08 19:35 W 19 G 28 16.09 Partly Cloudy SCT100 21 -2 21% 75.08 0.0
08 19:15 W 9 16.09 Partly Cloudy SCT110 21 -3 20% 75.08 0.0
08 18:55 W 6 16.09 Partly Cloudy SCT120 21 -3 20% 75.11 0.0
08 18:35 W 6 16.09 Partly Cloudy SCT120 21 -4 18% 75.11 0.0
08 18:15 W 6 16.09 Partly Cloudy SCT110 21 -4 18% 75.13 0.0
08 17:55 W 15 16.09 Fair CLR 21 -4 18% 75.16 0.0
08 17:35 W 13 G 30 16.09 Fair CLR 22 -4 17% 75.18 0.0
08 17:15 W 11 16.09 Fair CLR 22 -4 17% 75.18 0.0
08 16:55 W 17 16.09 Fair CLR 22 -3 19% 75.18 0.0
08 16:35 W 15 G 31 16.09 Fair CLR 21 -4 18% 75.23 0.0
08 16:15 W 13 G 28 16.09 Partly Cloudy SCT110 21 -5 17% 75.23 0.0
08 15:55 W 13 G 31 16.09 Fair CLR 21 -5 17% 75.23 0.0
08 15:35 W 9 G 35 16.09 Fair CLR 22 -5 16% 75.26 0.0
08 15:15 W 15 G 33 16.09 Partly Cloudy SCT110 22 -4 17% 75.29 0.0
08 14:55 NW 22 G 31 16.09 Partly Cloudy SCT120 21 -4 18% 75.31 0.0
08 14:35 W 9 16.09 Partly Cloudy SCT110 21 -4 18% 75.34 0.0
08 14:15 NW 24 G 41 16.09 Partly Cloudy SCT110 21 -4 18% 75.36 0.0
08 13:55 SW 13 16.09 Fair CLR 20 -5 18% 75.39 0.0
08 13:35 W 15 G 39 16.09 Partly Cloudy SCT120 20 -5 18% 75.41 0.0
08 13:15 SW 15 16.09 Partly Cloudy SCT120 21 -5 17% 75.44 0.0
08 12:55 SW 7 16.09 Partly Cloudy SCT110 20 -5 18% 75.44 0.0
08 12:35 W 13 16.09 Partly Cloudy SCT110 21 -3 20% 75.49 0.0
08 12:15 W 17 16.09 Fair CLR 20 -5 18% 75.49 0.0
08 11:55 SW 19 G 26 16.09 Partly Cloudy SCT110 18 -5 21% 75.54 0.0
08 11:39 SW 11 16.09 Partly Cloudy SCT110 18 -4 22% 75.54 0.0
08 11:15 SW 13 16.09 Fair CLR 18 -3 24% 75.57 0.0
08 10:55 W 13 16.09 Fair CLR 18 -3 24% 75.59 0.0
08 10:35 SW 11 16.09 Fair CLR 17 -3 25% 75.59 0.0
08 10:15 SW 7 16.09 Fair CLR 17 -3 25% 75.62 0.0
08 09:55 SW 11 16.09 Fair CLR 16 -3 27% 75.64 0.0
08 09:35 W 9 16.09 Fair CLR 15 -3 29% 75.64 0.0
08 09:15 SW 9 16.09 Fair CLR 13 -4 31% 75.67 0.0
08 08:55 SW 6 1.21 Sky Obscured with Haze VV005 13 -3 33% 75.69 0.0
08 08:35 S 9 16.09 Fair CLR 11 -5 32% 75.69 0.0
08 08:15 Calm 16.09 Fair CLR 11 -5 32% 75.69 0.0
08 07:55 E 6 16.09 Fair CLR 10 -4 37% 75.72 0.0
08 07:35 SE 6 16.09 Fair CLR 9 -5 37% 75.72 0.0
08 07:15 Calm 16.09 Fair CLR 8 -5 40% 75.69 0.0
08 06:55 Calm 16.09 Fair CLR 6 -3 53% 75.69 0.0
08 06:35 Calm 16.09 Fair CLR 5 -3 57% 75.69 0.0
08 06:15 Calm 16.09 Fair CLR 5 -3 57% 75.69 0.0
08 05:55 Calm 16.09 Fair CLR 3 0 81% 75.69 0.0
08 05:35 Calm 16.09 Fair CLR 1 0 93% 75.69 0.0
08 05:15 Calm 16.09 Fair CLR 1 -1 87% 75.72 0.0
08 04:55 Calm 16.09 Fair CLR 1 -1 87% 75.72 0.0
08 04:35 Calm 16.09 Fair CLR 1 0 93% 75.72 0.0
08 04:15 Calm 16.09 Fair CLR 0 -1 93% 75.72 0.0
08 03:55 Calm 16.09 Fair CLR 0 -1 93% 75.74 0.0
08 03:35 Calm 16.09 Fair CLR 1 -1 87% 75.74 0.0
08 03:15 Calm 16.09 Fair CLR 1 -1 87% 75.74 0.0
08 02:55 Calm 16.09 Fair CLR 1 -1 87% 75.74 0.0
08 02:35 Calm 16.09 Fair CLR 1 -1 87% 75.74 0.0
08 02:15 Calm 16.09 Fair CLR 1 -1 87% 75.77 0.0
08 01:55 Calm 16.09 Fair CLR 2 -1 81% 75.77 0.0
08 01:35 Calm 16.09 Fair CLR 2 -1 81% 75.79 0.0
08 01:15 Calm 16.09 Fair CLR 2 -1 81% 75.79 0.0
08 00:55 Calm 16.09 Fair CLR 2 -1 81% 75.82 0.0
08 00:35 Calm 16.09 Fair CLR 2 -1 81% 75.82 0.0
08 00:15 Calm 16.09 Fair CLR 3 -1 75% 75.82 0.0
07 23:55 Calm 16.09 Fair CLR 3 -1 75% 75.82 0.0
07 23:35 Calm 16.09 Fair CLR 4 -1 70% 75.82 0.0
07 23:15 Calm 16.09 Fair CLR 3 -1 75% 75.84 0.0
07 22:55 Calm 16.09 Fair CLR 5 -2 61% 75.84 0.0
07 22:35 Calm 16.09 Fair CLR 5 -2 61% 75.84 0.0
07 22:15 Calm 16.09 Fair CLR 5 -1 66% 75.84 0.0
07 21:55 Calm 16.09 Fair CLR 6 -3 53% 75.82 0.0
07 21:35 Calm 16.09 Fair CLR 6 -2 57% 75.82 0.0
07 21:15 Calm 16.09 Fair CLR 7 -3 49% 75.82 0.0
07 20:55 Calm 16.09 Fair CLR 8 -3 46% 75.82 0.0
07 20:35 Calm 16.09 Fair CLR 8 -3 46% 75.79 0.0
07 20:15 Calm 16.09 Fair CLR 10 -5 35% 75.79 0.0
07 19:55 NW 6 16.09 Fair CLR 11 -6 30% 75.77 0.0
07 19:35 NW 7 16.09 Fair CLR 12 -6 28% 75.77 0.0
07 19:15 NW 13 16.09 Fair CLR 12 -7 26% 75.77 0.0
07 18:55 N 19 16.09 Fair CLR 13 -6 26% 75.77 0.0
07 18:35 NW 17 16.09 Fair CLR 13 -6 26% 75.77 0.0
07 18:15 N 9 16.09 Fair CLR 13 -6 26% 75.77 0.0
07 17:55 NW 19 16.09 Fair CLR 13 -7 24% 75.77 0.0
07 17:35 N 7 16.09 Fair CLR 13 -7 24% 75.77 0.0
07 17:15 NW 15 16.09 Fair CLR 13 -7 24% 75.77 0.0
07 16:55 N 15 16.09 Fair CLR 13 -7 24% 75.77 0.0
07 16:35 N 15 G 26 16.09 Fair CLR 14 -6 25% 75.77 0.0
07 16:15 N 19 G 30 16.09 Fair CLR 14 -6 25% 75.79 0.0
07 15:55 N 19 G 30 16.09 Fair CLR 13 -6 26% 75.79 0.0
07 15:35 N 17 16.09 Fair CLR 13 -6 26% 75.82 0.0
07 15:15 N 17 G 28 16.09 Fair CLR 13 -6 26% 75.82 0.0
07 14:55 N 11 G 28 16.09 Fair CLR 13 -6 26% 75.82 0.0
07 14:35 N 15 G 30 16.09 Fair CLR 13 -6 26% 75.82 0.0
07 14:15 NW 19 G 30 16.09 Fair CLR 13 -5 28% 75.84 0.0
07 13:55 N 20 G 33 16.09 Fair CLR 13 -5 28% 75.84 0.0
07 13:35 N 22 G 33 16.09 Fair CLR 12 -5 30% 75.84 0.0
07 13:15 N 11 16.09 Fair CLR 12 -3 35% 75.84 0.0
07 12:55 N 11 16.09 Fair CLR 12 -2 38% 75.87 0.0
07 12:35 N 15 G 30 16.09 Fair CLR 11 -2 41% 75.87 0.0
07 12:15 N 17 G 26 16.09 Fair CLR 11 -2 41% 75.9 0.0
07 11:55 N 11 16.09 Fair CLR 11 -2 41% 75.92 0.0
07 11:35 N 13 16.09 Fair CLR 10 -2 43% 8 75.92 0.0
07 11:15 N 9 16.09 Fair CLR 10 -1 47% 9 75.92 0.0
07 10:55 N 7 16.09 Fair CLR 10 -2 43% 9 75.95 0.0
07 10:35 N 11 16.09 Partly Cloudy SCT040 SCT046 10 -1 47% 9 75.95 0.0
07 10:15 NE 7 16.09 Partly Cloudy SCT035 SCT042 SCT090 8 0 57% 7 75.95 0.0
07 09:55 N 6 16.09 Partly Cloudy SCT039 SCT045 SCT095 8 0 57% 75.97 0.0
07 09:35 NW 7 16.09 Mostly Cloudy SCT038 SCT046 BKN070 7 1 66% 6 76 0.0
Date Time (cdt) Wind (kph) Vis. (km) Weather Sky Cond. Air Dwpt Max. Min. Relative Humidity Wind Chill (°C) Heat Index (°C) altimeter (cm) sea level (mb) 1 hr 3 hr 6 hr
6 hour
Temperature (ºC) Pressure Precipitation (cm)